CYLL

Details ICAO CYLL (YLL)
Name LLOYDMINSTER
Region Canada
Timezone America/Edmonton (UTC-7.0)
Plans Departing 6
Arriving 4
Stats Elevation 2,193 ft / 668 m (AMSL)
Location 53.309711° -110.080202°
Runways 2
Magnetic Variation 12.568° E
Sunrise 2017-12-13 15:29:02 UTC / 2017-12-13 08:29:02 Local
Sunset 2017-12-13 23:03:07 UTC / 2017-12-13 16:03:07 Local
Advertisement - Login to hide

Runways

ID Width Length Bearing (true) Bearing (mag) Surface Threshold Offset Overrun Length
08 150 ft / 46 m 5,451 ft / 1,661 m 89.99° 77.42° Asphalt 0 ft / 0 m 0 ft / 0 m
11 100 ft / 30 m 1,496 ft / 456 m 122.06° 109.49° Grass 0 ft / 0 m 0 ft / 0 m
26 150 ft / 46 m 5,451 ft / 1,661 m 270.01° 257.44° Asphalt 0 ft / 0 m 0 ft / 0 m
29 100 ft / 30 m 1,496 ft / 456 m 302.07° 289.50° Grass 0 ft / 0 m 0 ft / 0 m

Map

Weather


0- 5 10 15 20 25 30 35+ Temperature / ° C

Clouds and Precipitation
Forecast for 2017-12-13 12:00 UTC. Updated 2 hours ago

Ground ~20,000 ft ~40,000 ft Winds

METAR

CYLL 131300Z AUTO 28011KT 9SM BKN120 OVC170 M00/M02 A3005 RMK SLP209

TAF

TAF CYLL 131138Z 1312/1324 27010KT P6SM BKN240 BECMG 1316/1318 30012G22KT SKC FM132100 30020G30KT P6SM SKC FM132300 30020G30KT P6SM BKN030 TEMPO 1323/1324 2SM -SHSN BKN020 RMK FCST BASED ON AUTO OBS. NXT FCST BY 131800Z

Frequencies

Tower 122.20 MHz MF LLOYDMINSTER RDO
Warning: Do not use this data for real-world aviation or navigation. No guarantee of current accuracy is given.